sensor_id;sensor_type;location;lat;lon;timestamp;P1;durP1;ratioP1;P2;durP2;ratioP2
17763;SDS011;22245;52.832;13.816;2023-06-19T00:02:30;12.88;;;9.65;;
17763;SDS011;22245;52.832;13.816;2023-06-19T00:05:52;11.68;;;9.30;;
17763;SDS011;22245;52.832;13.816;2023-06-19T00:09:15;10.93;;;9.23;;
17763;SDS011;22245;52.832;13.816;2023-06-19T00:12:37;12.95;;;9.98;;
17763;SDS011;22245;52.832;13.816;2023-06-19T00:16:00;11.10;;;9.80;;
17763;SDS011;22245;52.832;13.816;2023-06-19T00:19:22;12.25;;;9.82;;
17763;SDS011;22245;52.832;13.816;2023-06-19T00:22:44;14.30;;;10.63;;
17763;SDS011;22245;52.832;13.816;2023-06-19T00:26:11;12.07;;;10.52;;
17763;SDS011;22245;52.832;13.816;2023-06-19T00:29:35;10.75;;;9.40;;
17763;SDS011;22245;52.832;13.816;2023-06-19T00:32:58;15.57;;;10.00;;
17763;SDS011;22245;52.832;13.816;2023-06-19T00:36:23;14.23;;;9.75;;
17763;SDS011;22245;52.832;13.816;2023-06-19T00:39:46;13.73;;;10.25;;
17763;SDS011;22245;52.832;13.816;2023-06-19T00:43:08;13.45;;;10.82;;
17763;SDS011;22245;52.832;13.816;2023-06-19T00:46:30;10.57;;;9.07;;
17763;SDS011;22245;52.832;13.816;2023-06-19T00:49:54;13.75;;;9.82;;
17763;SDS011;22245;52.832;13.816;2023-06-19T00:53:16;12.10;;;10.43;;
17763;SDS011;22245;52.832;13.816;2023-06-19T00:56:41;12.70;;;10.40;;
17763;SDS011;22245;52.832;13.816;2023-06-19T01:00:02;11.38;;;10.18;;
17763;SDS011;22245;52.832;13.816;2023-06-19T01:03:28;10.85;;;9.75;;
17763;SDS011;22245;52.832;13.816;2023-06-19T01:06:53;12.80;;;10.27;;
17763;SDS011;22245;52.832;13.816;2023-06-19T01:10:19;12.55;;;10.32;;
17763;SDS011;22245;52.832;13.816;2023-06-19T01:13:47;12.98;;;10.35;;
17763;SDS011;22245;52.832;13.816;2023-06-19T01:17:14;12.90;;;11.18;;
17763;SDS011;22245;52.832;13.816;2023-06-19T01:20:37;14.02;;;10.52;;
17763;SDS011;22245;52.832;13.816;2023-06-19T01:24:01;11.25;;;10.05;;
17763;SDS011;22245;52.832;13.816;2023-06-19T01:27:25;12.93;;;10.90;;
17763;SDS011;22245;52.832;13.816;2023-06-19T01:30:49;12.77;;;10.90;;
17763;SDS011;22245;52.832;13.816;2023-06-19T01:34:12;12.45;;;10.77;;
17763;SDS011;22245;52.832;13.816;2023-06-19T01:37:37;12.95;;;10.70;;
17763;SDS011;22245;52.832;13.816;2023-06-19T01:41:01;13.35;;;10.73;;
17763;SDS011;22245;52.832;13.816;2023-06-19T01:44:25;12.55;;;11.02;;
17763;SDS011;22245;52.832;13.816;2023-06-19T01:47:47;16.20;;;10.95;;
17763;SDS011;22245;52.832;13.816;2023-06-19T01:51:09;12.65;;;10.63;;
17763;SDS011;22245;52.832;13.816;2023-06-19T01:54:32;13.00;;;11.02;;
17763;SDS011;22245;52.832;13.816;2023-06-19T01:57:55;12.52;;;10.00;;
17763;SDS011;22245;52.832;13.816;2023-06-19T02:01:16;13.02;;;11.38;;
17763;SDS011;22245;52.832;13.816;2023-06-19T02:04:38;15.65;;;11.05;;
17763;SDS011;22245;52.832;13.816;2023-06-19T02:08:01;15.80;;;11.05;;
17763;SDS011;22245;52.832;13.816;2023-06-19T02:11:26;14.40;;;10.95;;
17763;SDS011;22245;52.832;13.816;2023-06-19T02:14:50;12.82;;;10.95;;
17763;SDS011;22245;52.832;13.816;2023-06-19T02:18:12;18.00;;;11.77;;
17763;SDS011;22245;52.832;13.816;2023-06-19T02:21:34;13.48;;;11.30;;
17763;SDS011;22245;52.832;13.816;2023-06-19T02:24:56;15.90;;;12.43;;
17763;SDS011;22245;52.832;13.816;2023-06-19T02:28:18;17.50;;;12.20;;
17763;SDS011;22245;52.832;13.816;2023-06-19T02:31:41;13.95;;;12.45;;
17763;SDS011;22245;52.832;13.816;2023-06-19T02:35:06;15.13;;;11.73;;
17763;SDS011;22245;52.832;13.816;2023-06-19T02:38:31;13.95;;;11.82;;
17763;SDS011;22245;52.832;13.816;2023-06-19T02:41:53;16.13;;;11.77;;
17763;SDS011;22245;52.832;13.816;2023-06-19T02:45:15;14.52;;;11.77;;
17763;SDS011;22245;52.832;13.816;2023-06-19T02:48:38;14.15;;;11.93;;
17763;SDS011;22245;52.832;13.816;2023-06-19T02:52:00;12.60;;;11.30;;
17763;SDS011;22245;52.832;13.816;2023-06-19T02:55:22;13.35;;;11.65;;
17763;SDS011;22245;52.832;13.816;2023-06-19T02:58:44;14.65;;;12.10;;
17763;SDS011;22245;52.832;13.816;2023-06-19T03:02:06;14.30;;;11.57;;
17763;SDS011;22245;52.832;13.816;2023-06-19T03:05:29;12.82;;;10.98;;
17763;SDS011;22245;52.832;13.816;2023-06-19T03:08:51;13.23;;;11.82;;
17763;SDS011;22245;52.832;13.816;2023-06-19T03:12:13;14.55;;;11.82;;
17763;SDS011;22245;52.832;13.816;2023-06-19T03:15:35;14.63;;;11.95;;
17763;SDS011;22245;52.832;13.816;2023-06-19T03:18:57;14.18;;;11.88;;
17763;SDS011;22245;52.832;13.816;2023-06-19T03:22:20;14.80;;;12.50;;
17763;SDS011;22245;52.832;13.816;2023-06-19T03:25:43;12.45;;;11.13;;
17763;SDS011;22245;52.832;13.816;2023-06-19T03:29:05;14.80;;;11.48;;
17763;SDS011;22245;52.832;13.816;2023-06-19T03:32:41;16.23;;;11.80;;
17763;SDS011;22245;52.832;13.816;2023-06-19T03:36:11;14.18;;;11.10;;
17763;SDS011;22245;52.832;13.816;2023-06-19T03:39:44;14.60;;;11.13;;
17763;SDS011;22245;52.832;13.816;2023-06-19T03:43:06;14.55;;;12.00;;
17763;SDS011;22245;52.832;13.816;2023-06-19T03:46:28;13.68;;;11.88;;
17763;SDS011;22245;52.832;13.816;2023-06-19T03:49:50;13.10;;;11.68;;
17763;SDS011;22245;52.832;13.816;2023-06-19T03:53:14;16.33;;;12.68;;
17763;SDS011;22245;52.832;13.816;2023-06-19T03:56:38;16.65;;;13.20;;
17763;SDS011;22245;52.832;13.816;2023-06-19T03:59:59;14.45;;;12.80;;
17763;SDS011;22245;52.832;13.816;2023-06-19T04:03:31;15.75;;;12.77;;
17763;SDS011;22245;52.832;13.816;2023-06-19T04:06:55;16.08;;;13.23;;
17763;SDS011;22245;52.832;13.816;2023-06-19T04:10:19;15.88;;;12.50;;
17763;SDS011;22245;52.832;13.816;2023-06-19T04:13:43;15.63;;;13.52;;
17763;SDS011;22245;52.832;13.816;2023-06-19T04:17:05;16.67;;;13.68;;
17763;SDS011;22245;52.832;13.816;2023-06-19T04:20:28;19.10;;;13.88;;
17763;SDS011;22245;52.832;13.816;2023-06-19T04:23:50;18.23;;;13.90;;
17763;SDS011;22245;52.832;13.816;2023-06-19T04:27:12;18.27;;;14.35;;
17763;SDS011;22245;52.832;13.816;2023-06-19T04:30:35;19.67;;;14.48;;
17763;SDS011;22245;52.832;13.816;2023-06-19T04:33:59;19.67;;;14.80;;
17763;SDS011;22245;52.832;13.816;2023-06-19T04:37:24;17.33;;;14.70;;
17763;SDS011;22245;52.832;13.816;2023-06-19T04:40:46;20.63;;;15.85;;
17763;SDS011;22245;52.832;13.816;2023-06-19T04:44:08;17.92;;;14.88;;
17763;SDS011;22245;52.832;13.816;2023-06-19T04:47:33;20.13;;;15.27;;
17763;SDS011;22245;52.832;13.816;2023-06-19T04:51:12;18.98;;;15.55;;
17763;SDS011;22245;52.832;13.816;2023-06-19T04:54:34;19.83;;;15.25;;
17763;SDS011;22245;52.832;13.816;2023-06-19T04:57:55;18.17;;;15.73;;
17763;SDS011;22245;52.832;13.816;2023-06-19T05:01:17;17.40;;;15.27;;
17763;SDS011;22245;52.832;13.816;2023-06-19T05:04:47;18.52;;;15.88;;
17763;SDS011;22245;52.832;13.816;2023-06-19T05:08:09;20.45;;;16.63;;
17763;SDS011;22245;52.832;13.816;2023-06-19T05:11:30;20.80;;;15.55;;
17763;SDS011;22245;52.832;13.816;2023-06-19T05:14:52;18.85;;;15.77;;
17763;SDS011;22245;52.832;13.816;2023-06-19T05:18:14;19.08;;;16.15;;
17763;SDS011;22245;52.832;13.816;2023-06-19T05:21:38;19.70;;;15.93;;
17763;SDS011;22245;52.832;13.816;2023-06-19T05:24:59;18.23;;;15.90;;
17763;SDS011;22245;52.832;13.816;2023-06-19T05:28:21;20.05;;;16.70;;
17763;SDS011;22245;52.832;13.816;2023-06-19T05:31:43;18.58;;;15.73;;
17763;SDS011;22245;52.832;13.816;2023-06-19T05:35:06;21.83;;;16.83;;
17763;SDS011;22245;52.832;13.816;2023-06-19T05:38:30;24.05;;;16.23;;
17763;SDS011;22245;52.832;13.816;2023-06-19T05:41:52;20.33;;;17.08;;
17763;SDS011;22245;52.832;13.816;2023-06-19T05:45:14;19.48;;;16.52;;
17763;SDS011;22245;52.832;13.816;2023-06-19T05:48:35;19.02;;;16.98;;
17763;SDS011;22245;52.832;13.816;2023-06-19T05:51:57;22.17;;;17.02;;
17763;SDS011;22245;52.832;13.816;2023-06-19T05:55:21;20.20;;;16.88;;
17763;SDS011;22245;52.832;13.816;2023-06-19T05:58:45;21.25;;;16.70;;
17763;SDS011;22245;52.832;13.816;2023-06-19T06:02:07;18.20;;;16.17;;
17763;SDS011;22245;52.832;13.816;2023-06-19T06:05:29;18.90;;;15.90;;
17763;SDS011;22245;52.832;13.816;2023-06-19T06:08:51;19.20;;;16.17;;
17763;SDS011;22245;52.832;13.816;2023-06-19T06:12:16;22.67;;;17.13;;
17763;SDS011;22245;52.832;13.816;2023-06-19T06:15:38;21.52;;;16.45;;
17763;SDS011;22245;52.832;13.816;2023-06-19T06:19:00;21.38;;;17.00;;
17763;SDS011;22245;52.832;13.816;2023-06-19T06:22:22;18.98;;;16.30;;
17763;SDS011;22245;52.832;13.816;2023-06-19T06:25:44;20.27;;;15.88;;
17763;SDS011;22245;52.832;13.816;2023-06-19T06:29:08;18.73;;;16.58;;
17763;SDS011;22245;52.832;13.816;2023-06-19T06:32:30;19.17;;;16.20;;
17763;SDS011;22245;52.832;13.816;2023-06-19T06:35:54;17.90;;;16.00;;
17763;SDS011;22245;52.832;13.816;2023-06-19T06:39:16;19.75;;;15.73;;
17763;SDS011;22245;52.832;13.816;2023-06-19T06:42:38;17.27;;;14.70;;
17763;SDS011;22245;52.832;13.816;2023-06-19T06:46:02;19.98;;;15.85;;
17763;SDS011;22245;52.832;13.816;2023-06-19T06:49:23;19.70;;;16.10;;
17763;SDS011;22245;52.832;13.816;2023-06-19T06:52:46;18.33;;;15.80;;
17763;SDS011;22245;52.832;13.816;2023-06-19T06:56:09;18.40;;;13.55;;
17763;SDS011;22245;52.832;13.816;2023-06-19T06:59:30;18.75;;;15.88;;
17763;SDS011;22245;52.832;13.816;2023-06-19T07:02:53;17.92;;;15.18;;
17763;SDS011;22245;52.832;13.816;2023-06-19T07:06:15;16.58;;;14.73;;
17763;SDS011;22245;52.832;13.816;2023-06-19T07:09:37;18.65;;;16.40;;
17763;SDS011;22245;52.832;13.816;2023-06-19T07:12:59;16.88;;;14.50;;
17763;SDS011;22245;52.832;13.816;2023-06-19T07:16:20;18.23;;;15.80;;
17763;SDS011;22245;52.832;13.816;2023-06-19T07:19:44;21.08;;;16.65;;
17763;SDS011;22245;52.832;13.816;2023-06-19T07:23:06;19.85;;;16.10;;
17763;SDS011;22245;52.832;13.816;2023-06-19T07:26:29;20.98;;;15.65;;
17763;SDS011;22245;52.832;13.816;2023-06-19T07:29:51;17.75;;;15.63;;
17763;SDS011;22245;52.832;13.816;2023-06-19T07:33:13;18.05;;;16.00;;
17763;SDS011;22245;52.832;13.816;2023-06-19T07:36:36;18.20;;;16.27;;
17763;SDS011;22245;52.832;13.816;2023-06-19T07:39:58;18.58;;;16.58;;
17763;SDS011;22245;52.832;13.816;2023-06-19T07:43:20;18.38;;;15.70;;
17763;SDS011;22245;52.832;13.816;2023-06-19T07:46:42;17.70;;;15.50;;
17763;SDS011;22245;52.832;13.816;2023-06-19T07:50:04;20.38;;;17.02;;
17763;SDS011;22245;52.832;13.816;2023-06-19T07:53:28;18.17;;;16.27;;
17763;SDS011;22245;52.832;13.816;2023-06-19T07:56:50;20.60;;;18.08;;
17763;SDS011;22245;52.832;13.816;2023-06-19T08:00:12;22.83;;;17.73;;
17763;SDS011;22245;52.832;13.816;2023-06-19T08:03:34;20.75;;;18.42;;
17763;SDS011;22245;52.832;13.816;2023-06-19T08:06:56;23.35;;;18.35;;
17763;SDS011;22245;52.832;13.816;2023-06-19T08:10:19;23.63;;;18.83;;
17763;SDS011;22245;52.832;13.816;2023-06-19T08:13:41;28.55;;;19.35;;
17763;SDS011;22245;52.832;13.816;2023-06-19T08:17:03;22.23;;;17.58;;
17763;SDS011;22245;52.832;13.816;2023-06-19T08:20:25;25.05;;;19.67;;
17763;SDS011;22245;52.832;13.816;2023-06-19T08:23:48;23.92;;;19.45;;
17763;SDS011;22245;52.832;13.816;2023-06-19T08:27:11;27.15;;;19.65;;
17763;SDS011;22245;52.832;13.816;2023-06-19T08:30:33;26.80;;;19.48;;
17763;SDS011;22245;52.832;13.816;2023-06-19T08:33:55;22.52;;;18.80;;
17763;SDS011;22245;52.832;13.816;2023-06-19T08:37:17;23.95;;;18.75;;
17763;SDS011;22245;52.832;13.816;2023-06-19T08:40:40;26.40;;;19.55;;
17763;SDS011;22245;52.832;13.816;2023-06-19T08:44:04;25.00;;;19.48;;
17763;SDS011;22245;52.832;13.816;2023-06-19T08:47:28;24.75;;;19.88;;
17763;SDS011;22245;52.832;13.816;2023-06-19T08:50:51;24.40;;;18.40;;
17763;SDS011;22245;52.832;13.816;2023-06-19T08:54:13;29.13;;;18.67;;
17763;SDS011;22245;52.832;13.816;2023-06-19T08:57:37;30.35;;;19.20;;
17763;SDS011;22245;52.832;13.816;2023-06-19T09:01:02;28.27;;;19.52;;
17763;SDS011;22245;52.832;13.816;2023-06-19T09:04:24;27.63;;;20.42;;
17763;SDS011;22245;52.832;13.816;2023-06-19T09:07:54;26.10;;;17.80;;
17763;SDS011;22245;52.832;13.816;2023-06-19T09:11:18;32.35;;;19.48;;
17763;SDS011;22245;52.832;13.816;2023-06-19T09:14:41;23.77;;;18.83;;
17763;SDS011;22245;52.832;13.816;2023-06-19T09:18:06;22.65;;;17.80;;
17763;SDS011;22245;52.832;13.816;2023-06-19T09:21:29;24.48;;;18.10;;
17763;SDS011;22245;52.832;13.816;2023-06-19T09:24:51;26.52;;;19.20;;
17763;SDS011;22245;52.832;13.816;2023-06-19T09:28:18;22.73;;;17.08;;
17763;SDS011;22245;52.832;13.816;2023-06-19T09:31:41;25.33;;;17.67;;
17763;SDS011;22245;52.832;13.816;2023-06-19T09:35:05;21.58;;;17.33;;
17763;SDS011;22245;52.832;13.816;2023-06-19T09:38:27;26.25;;;18.40;;
17763;SDS011;22245;52.832;13.816;2023-06-19T09:41:50;24.23;;;16.30;;
17763;SDS011;22245;52.832;13.816;2023-06-19T09:45:14;21.88;;;16.48;;
17763;SDS011;22245;52.832;13.816;2023-06-19T09:48:41;18.20;;;16.27;;
17763;SDS011;22245;52.832;13.816;2023-06-19T09:52:05;19.60;;;16.00;;
17763;SDS011;22245;52.832;13.816;2023-06-19T09:55:28;20.33;;;15.27;;
17763;SDS011;22245;52.832;13.816;2023-06-19T09:58:51;20.98;;;15.93;;
17763;SDS011;22245;52.832;13.816;2023-06-19T10:02:16;18.48;;;15.57;;
17763;SDS011;22245;52.832;13.816;2023-06-19T10:05:39;19.73;;;15.93;;
17763;SDS011;22245;52.832;13.816;2023-06-19T10:09:09;23.27;;;16.75;;
17763;SDS011;22245;52.832;13.816;2023-06-19T10:12:39;20.38;;;15.95;;
17763;SDS011;22245;52.832;13.816;2023-06-19T10:16:03;18.50;;;16.50;;
17763;SDS011;22245;52.832;13.816;2023-06-19T10:19:25;22.85;;;16.35;;
17763;SDS011;22245;52.832;13.816;2023-06-19T10:22:50;22.17;;;16.38;;
17763;SDS011;22245;52.832;13.816;2023-06-19T10:26:20;20.52;;;18.08;;
17763;SDS011;22245;52.832;13.816;2023-06-19T10:29:51;23.90;;;17.50;;
17763;SDS011;22245;52.832;13.816;2023-06-19T10:33:35;19.10;;;17.00;;
17763;SDS011;22245;52.832;13.816;2023-06-19T10:37:00;24.23;;;16.60;;
17763;SDS011;22245;52.832;13.816;2023-06-19T10:40:22;24.60;;;18.70;;
17763;SDS011;22245;52.832;13.816;2023-06-19T10:43:53;19.63;;;17.52;;
17763;SDS011;22245;52.832;13.816;2023-06-19T10:47:22;20.60;;;16.00;;
17763;SDS011;22245;52.832;13.816;2023-06-19T10:50:44;21.45;;;17.20;;
17763;SDS011;22245;52.832;13.816;2023-06-19T10:54:05;24.80;;;17.80;;
17763;SDS011;22245;52.832;13.816;2023-06-19T10:57:29;21.85;;;16.77;;
17763;SDS011;22245;52.832;13.816;2023-06-19T11:00:53;21.30;;;18.00;;
17763;SDS011;22245;52.832;13.816;2023-06-19T11:04:15;24.25;;;16.65;;
17763;SDS011;22245;52.832;13.816;2023-06-19T11:07:37;22.17;;;17.13;;
17763;SDS011;22245;52.832;13.816;2023-06-19T11:10:59;24.77;;;19.25;;
17763;SDS011;22245;52.832;13.816;2023-06-19T11:14:20;23.20;;;18.20;;
17763;SDS011;22245;52.832;13.816;2023-06-19T11:17:44;21.25;;;17.92;;
17763;SDS011;22245;52.832;13.816;2023-06-19T11:21:06;29.63;;;18.23;;
17763;SDS011;22245;52.832;13.816;2023-06-19T11:24:28;23.15;;;18.15;;
17763;SDS011;22245;52.832;13.816;2023-06-19T11:27:51;21.40;;;18.27;;
17763;SDS011;22245;52.832;13.816;2023-06-19T11:31:14;21.52;;;19.13;;
17763;SDS011;22245;52.832;13.816;2023-06-19T11:34:37;22.92;;;17.90;;
17763;SDS011;22245;52.832;13.816;2023-06-19T11:37:59;21.15;;;18.65;;
17763;SDS011;22245;52.832;13.816;2023-06-19T11:41:25;20.50;;;18.25;;
17763;SDS011;22245;52.832;13.816;2023-06-19T11:44:53;21.38;;;17.75;;
17763;SDS011;22245;52.832;13.816;2023-06-19T11:48:21;20.13;;;17.90;;
17763;SDS011;22245;52.832;13.816;2023-06-19T11:51:44;25.35;;;17.90;;
17763;SDS011;22245;52.832;13.816;2023-06-19T11:55:08;25.75;;;17.80;;
17763;SDS011;22245;52.832;13.816;2023-06-19T11:58:30;21.20;;;17.88;;
17763;SDS011;22245;52.832;13.816;2023-06-19T12:01:51;21.02;;;17.23;;
17763;SDS011;22245;52.832;13.816;2023-06-19T12:05:13;18.73;;;16.75;;
17763;SDS011;22245;52.832;13.816;2023-06-19T12:08:36;17.67;;;15.55;;
17763;SDS011;22245;52.832;13.816;2023-06-19T12:11:58;18.88;;;15.07;;
17763;SDS011;22245;52.832;13.816;2023-06-19T12:15:20;17.95;;;16.05;;
17763;SDS011;22245;52.832;13.816;2023-06-19T12:18:42;18.63;;;16.63;;
17763;SDS011;22245;52.832;13.816;2023-06-19T12:22:04;17.08;;;15.25;;
17763;SDS011;22245;52.832;13.816;2023-06-19T12:25:27;19.75;;;15.27;;
17763;SDS011;22245;52.832;13.816;2023-06-19T12:28:49;19.38;;;14.93;;
17763;SDS011;22245;52.832;13.816;2023-06-19T12:32:13;17.08;;;14.60;;
17763;SDS011;22245;52.832;13.816;2023-06-19T12:35:35;16.52;;;14.68;;
17763;SDS011;22245;52.832;13.816;2023-06-19T12:38:59;23.45;;;15.10;;
17763;SDS011;22245;52.832;13.816;2023-06-19T12:42:24;19.52;;;14.43;;
17763;SDS011;22245;52.832;13.816;2023-06-19T12:45:46;15.13;;;13.52;;
17763;SDS011;22245;52.832;13.816;2023-06-19T12:49:08;14.13;;;12.68;;
17763;SDS011;22245;52.832;13.816;2023-06-19T12:52:29;15.85;;;11.98;;
17763;SDS011;22245;52.832;13.816;2023-06-19T12:55:52;14.20;;;12.70;;
17763;SDS011;22245;52.832;13.816;2023-06-19T12:59:22;15.82;;;12.55;;
17763;SDS011;22245;52.832;13.816;2023-06-19T13:02:44;13.60;;;11.75;;
17763;SDS011;22245;52.832;13.816;2023-06-19T13:06:07;13.98;;;12.60;;
17763;SDS011;22245;52.832;13.816;2023-06-19T13:09:29;15.25;;;12.25;;
17763;SDS011;22245;52.832;13.816;2023-06-19T13:12:51;16.85;;;13.20;;
17763;SDS011;22245;52.832;13.816;2023-06-19T13:16:14;19.80;;;12.40;;
17763;SDS011;22245;52.832;13.816;2023-06-19T13:19:49;14.43;;;12.93;;
17763;SDS011;22245;52.832;13.816;2023-06-19T13:23:11;14.15;;;11.75;;
17763;SDS011;22245;52.832;13.816;2023-06-19T13:26:33;13.75;;;12.10;;
17763;SDS011;22245;52.832;13.816;2023-06-19T13:29:55;16.35;;;12.63;;
17763;SDS011;22245;52.832;13.816;2023-06-19T13:33:19;14.57;;;12.95;;
17763;SDS011;22245;52.832;13.816;2023-06-19T13:36:41;12.80;;;11.50;;
17763;SDS011;22245;52.832;13.816;2023-06-19T13:40:03;15.30;;;11.80;;
17763;SDS011;22245;52.832;13.816;2023-06-19T13:43:26;12.98;;;11.68;;
17763;SDS011;22245;52.832;13.816;2023-06-19T13:46:47;15.68;;;12.40;;
17763;SDS011;22245;52.832;13.816;2023-06-19T13:50:11;13.88;;;10.82;;
17763;SDS011;22245;52.832;13.816;2023-06-19T13:53:38;11.43;;;10.38;;
17763;SDS011;22245;52.832;13.816;2023-06-19T13:57:00;14.55;;;11.48;;
17763;SDS011;22245;52.832;13.816;2023-06-19T14:00:21;11.95;;;10.30;;
17763;SDS011;22245;52.832;13.816;2023-06-19T14:03:43;12.10;;;10.80;;
17763;SDS011;22245;52.832;13.816;2023-06-19T14:07:07;12.25;;;10.32;;
17763;SDS011;22245;52.832;13.816;2023-06-19T14:10:28;13.65;;;10.77;;
17763;SDS011;22245;52.832;13.816;2023-06-19T14:13:50;11.98;;;10.70;;
17763;SDS011;22245;52.832;13.816;2023-06-19T14:17:13;11.63;;;10.43;;
17763;SDS011;22245;52.832;13.816;2023-06-19T14:20:35;10.98;;;9.85;;
17763;SDS011;22245;52.832;13.816;2023-06-19T14:23:58;11.15;;;9.95;;
17763;SDS011;22245;52.832;13.816;2023-06-19T14:27:20;10.90;;;9.80;;
17763;SDS011;22245;52.832;13.816;2023-06-19T14:30:43;13.73;;;12.32;;
17763;SDS011;22245;52.832;13.816;2023-06-19T14:34:04;11.43;;;9.57;;
17763;SDS011;22245;52.832;13.816;2023-06-19T14:37:27;11.60;;;9.40;;
17763;SDS011;22245;52.832;13.816;2023-06-19T14:40:50;11.15;;;9.68;;
17763;SDS011;22245;52.832;13.816;2023-06-19T14:44:12;10.93;;;9.82;;
17763;SDS011;22245;52.832;13.816;2023-06-19T14:47:35;14.55;;;9.68;;
17763;SDS011;22245;52.832;13.816;2023-06-19T14:50:57;10.52;;;9.45;;
17763;SDS011;22245;52.832;13.816;2023-06-19T14:54:19;11.48;;;9.73;;
17763;SDS011;22245;52.832;13.816;2023-06-19T14:57:43;11.43;;;9.00;;
17763;SDS011;22245;52.832;13.816;2023-06-19T15:01:05;9.98;;;8.93;;
17763;SDS011;22245;52.832;13.816;2023-06-19T15:04:26;11.07;;;9.90;;
17763;SDS011;22245;52.832;13.816;2023-06-19T15:07:48;12.63;;;10.35;;
17763;SDS011;22245;52.832;13.816;2023-06-19T15:11:09;13.07;;;11.05;;
17763;SDS011;22245;52.832;13.816;2023-06-19T15:14:33;11.52;;;10.15;;
17763;SDS011;22245;52.832;13.816;2023-06-19T15:17:57;13.07;;;10.93;;
17763;SDS011;22245;52.832;13.816;2023-06-19T15:21:19;12.50;;;10.30;;
17763;SDS011;22245;52.832;13.816;2023-06-19T15:24:41;13.50;;;10.07;;
17763;SDS011;22245;52.832;13.816;2023-06-19T15:28:03;13.60;;;11.00;;
17763;SDS011;22245;52.832;13.816;2023-06-19T15:31:26;12.07;;;10.88;;
17763;SDS011;22245;52.832;13.816;2023-06-19T15:34:48;13.20;;;10.85;;
17763;SDS011;22245;52.832;13.816;2023-06-19T15:38:10;12.85;;;10.65;;
17763;SDS011;22245;52.832;13.816;2023-06-19T15:41:32;12.00;;;10.52;;
17763;SDS011;22245;52.832;13.816;2023-06-19T15:44:54;11.80;;;10.60;;
17763;SDS011;22245;52.832;13.816;2023-06-19T15:48:17;14.35;;;11.38;;
17763;SDS011;22245;52.832;13.816;2023-06-19T15:51:39;12.80;;;11.40;;
17763;SDS011;22245;52.832;13.816;2023-06-19T15:55:01;12.02;;;10.82;;
17763;SDS011;22245;52.832;13.816;2023-06-19T15:58:23;11.82;;;10.63;;
17763;SDS011;22245;52.832;13.816;2023-06-19T16:01:45;11.85;;;10.75;;
17763;SDS011;22245;52.832;13.816;2023-06-19T16:05:08;11.93;;;10.05;;
17763;SDS011;22245;52.832;13.816;2023-06-19T16:08:30;11.38;;;10.27;;
17763;SDS011;22245;52.832;13.816;2023-06-19T16:11:52;10.73;;;9.63;;
17763;SDS011;22245;52.832;13.816;2023-06-19T16:15:13;10.90;;;9.75;;
17763;SDS011;22245;52.832;13.816;2023-06-19T16:18:44;11.30;;;10.10;;
17763;SDS011;22245;52.832;13.816;2023-06-19T16:22:07;10.93;;;9.82;;
17763;SDS011;22245;52.832;13.816;2023-06-19T16:25:31;11.43;;;10.23;;
17763;SDS011;22245;52.832;13.816;2023-06-19T16:28:53;11.07;;;9.70;;
17763;SDS011;22245;52.832;13.816;2023-06-19T16:32:15;11.50;;;9.35;;
17763;SDS011;22245;52.832;13.816;2023-06-19T16:35:36;12.43;;;10.18;;
17763;SDS011;22245;52.832;13.816;2023-06-19T16:39:00;12.32;;;10.07;;
17763;SDS011;22245;52.832;13.816;2023-06-19T16:42:21;10.93;;;9.82;;
17763;SDS011;22245;52.832;13.816;2023-06-19T16:45:45;10.57;;;9.50;;
17763;SDS011;22245;52.832;13.816;2023-06-19T16:49:07;11.13;;;10.02;;
17763;SDS011;22245;52.832;13.816;2023-06-19T16:52:28;10.55;;;9.63;;
17763;SDS011;22245;52.832;13.816;2023-06-19T16:55:51;10.55;;;9.55;;
17763;SDS011;22245;52.832;13.816;2023-06-19T16:59:15;12.07;;;10.18;;
17763;SDS011;22245;52.832;13.816;2023-06-19T17:02:37;10.43;;;9.43;;
17763;SDS011;22245;52.832;13.816;2023-06-19T17:06:00;10.60;;;9.60;;
17763;SDS011;22245;52.832;13.816;2023-06-19T17:09:21;10.60;;;9.60;;
17763;SDS011;22245;52.832;13.816;2023-06-19T17:12:44;12.48;;;9.27;;
17763;SDS011;22245;52.832;13.816;2023-06-19T17:16:06;11.13;;;9.40;;
17763;SDS011;22245;52.832;13.816;2023-06-19T17:19:28;10.40;;;9.32;;
17763;SDS011;22245;52.832;13.816;2023-06-19T17:22:50;10.52;;;9.52;;
17763;SDS011;22245;52.832;13.816;2023-06-19T17:26:12;10.63;;;9.43;;
17763;SDS011;22245;52.832;13.816;2023-06-19T17:29:35;11.60;;;10.18;;
17763;SDS011;22245;52.832;13.816;2023-06-19T17:32:57;11.35;;;9.60;;
17763;SDS011;22245;52.832;13.816;2023-06-19T17:36:19;14.32;;;10.68;;
17763;SDS011;22245;52.832;13.816;2023-06-19T17:39:41;11.30;;;10.18;;
17763;SDS011;22245;52.832;13.816;2023-06-19T17:43:03;11.07;;;9.88;;
17763;SDS011;22245;52.832;13.816;2023-06-19T17:46:26;13.98;;;10.20;;
17763;SDS011;22245;52.832;13.816;2023-06-19T17:49:49;11.40;;;9.93;;
17763;SDS011;22245;52.832;13.816;2023-06-19T17:53:11;10.98;;;9.75;;
17763;SDS011;22245;52.832;13.816;2023-06-19T17:56:33;12.75;;;10.68;;
17763;SDS011;22245;52.832;13.816;2023-06-19T17:59:55;13.75;;;11.38;;
17763;SDS011;22245;52.832;13.816;2023-06-19T18:03:17;12.45;;;11.15;;
17763;SDS011;22245;52.832;13.816;2023-06-19T18:06:39;12.23;;;10.73;;
17763;SDS011;22245;52.832;13.816;2023-06-19T18:10:01;11.80;;;10.27;;
17763;SDS011;22245;52.832;13.816;2023-06-19T18:13:23;12.77;;;10.13;;
17763;SDS011;22245;52.832;13.816;2023-06-19T18:16:44;12.63;;;11.30;;
17763;SDS011;22245;52.832;13.816;2023-06-19T18:20:09;10.90;;;9.90;;
17763;SDS011;22245;52.832;13.816;2023-06-19T18:23:32;12.80;;;11.50;;
17763;SDS011;22245;52.832;13.816;2023-06-19T18:26:54;13.93;;;11.05;;
17763;SDS011;22245;52.832;13.816;2023-06-19T18:30:15;13.68;;;11.50;;
17763;SDS011;22245;52.832;13.816;2023-06-19T18:33:37;14.23;;;11.30;;
17763;SDS011;22245;52.832;13.816;2023-06-19T18:37:00;14.18;;;11.23;;
17763;SDS011;22245;52.832;13.816;2023-06-19T18:40:23;13.57;;;11.43;;
17763;SDS011;22245;52.832;13.816;2023-06-19T18:43:46;12.48;;;11.27;;
17763;SDS011;22245;52.832;13.816;2023-06-19T18:47:08;12.30;;;11.00;;
17763;SDS011;22245;52.832;13.816;2023-06-19T18:50:30;13.05;;;11.65;;
17763;SDS011;22245;52.832;13.816;2023-06-19T18:53:53;12.45;;;10.93;;
17763;SDS011;22245;52.832;13.816;2023-06-19T18:57:15;15.05;;;11.85;;
17763;SDS011;22245;52.832;13.816;2023-06-19T19:00:37;16.58;;;11.90;;
17763;SDS011;22245;52.832;13.816;2023-06-19T19:03:58;14.38;;;12.82;;
17763;SDS011;22245;52.832;13.816;2023-06-19T19:07:20;16.80;;;14.25;;
17763;SDS011;22245;52.832;13.816;2023-06-19T19:10:44;15.73;;;14.13;;
17763;SDS011;22245;52.832;13.816;2023-06-19T19:14:06;14.00;;;12.45;;
17763;SDS011;22245;52.832;13.816;2023-06-19T19:17:27;16.67;;;12.30;;
17763;SDS011;22245;52.832;13.816;2023-06-19T19:20:49;13.68;;;12.23;;
17763;SDS011;22245;52.832;13.816;2023-06-19T19:24:11;21.58;;;13.10;;
17763;SDS011;22245;52.832;13.816;2023-06-19T19:27:35;16.75;;;12.90;;
17763;SDS011;22245;52.832;13.816;2023-06-19T19:30:57;14.43;;;12.93;;
17763;SDS011;22245;52.832;13.816;2023-06-19T19:34:18;14.52;;;12.52;;